Time;durP1;ratioP1;P1;durP2;ratioP2;P2;SDS_P1;SDS_P2;PMS_P1;PMS_P2;Temp;Humidity;BMP_temperature;BMP_pressure;BME280_temperature;BME280_humidity;BME280_pressure;Samples;Min_cycle;Max_cycle;Signal;HPM_P1;HPM_P2
2022/05/07 00:00:46;;;;;;;15.95;10.32;;;12.90;99.90;;;;;;6707582;88;20212;-79
2022/05/07 00:10:46;;;;;;;15.70;10.35;;;12.90;99.90;;;;;;6711274;88;20627;-81
2022/05/07 00:20:48;;;;;;;15.70;10.32;;;12.90;99.90;;;;;;6712986;88;20197;-80
2022/05/07 00:30:48;;;;;;;17.00;10.95;;;12.80;99.90;;;;;;6714795;88;20219;-81
2022/05/07 00:40:50;;;;;;;17.02;11.50;;;12.70;99.90;;;;;;6718351;88;20194;-81
2022/05/07 01:01:17;;;;;;;16.92;10.38;;;12.50;99.90;;;;;;6673005;89;20734;-80
2022/05/07 01:11:26;;;;;;;15.68;11.15;;;12.00;99.90;;;;;;6610380;89;20210;-81
2022/05/07 01:21:32;;;;;;;16.52;10.88;;;11.70;99.90;;;;;;6620112;89;20250;-80
2022/05/07 01:31:33;;;;;;;16.52;10.73;;;11.70;99.90;;;;;;6700057;88;20232;-81
2022/05/07 01:41:33;;;;;;;15.68;10.73;;;11.60;99.90;;;;;;6701138;88;20210;-81
2022/05/07 01:51:43;;;;;;;15.80;11.23;;;11.80;99.90;;;;;;6692061;88;20202;-80
2022/05/07 02:01:45;;;;;;;16.65;10.52;;;12.10;99.90;;;;;;6694268;88;20221;-81
2022/05/07 02:11:45;;;;;;;16.95;10.90;;;11.80;99.90;;;;;;6695031;88;20276;-80
2022/05/07 02:21:50;;;;;;;17.62;11.38;;;11.60;99.90;;;;;;6688955;88;20187;-81
2022/05/07 02:32:05;;;;;;;17.37;10.52;;;11.30;99.90;;;;;;6691637;88;20323;-80
2022/05/07 02:52:32;;;;;;;17.00;11.00;;;11.10;99.90;;;;;;6692253;88;20178;-81
2022/05/07 03:02:36;;;;;;;15.82;10.93;;;10.90;99.90;;;;;;6691556;88;20682;-79
2022/05/07 03:12:40;;;;;;;17.08;11.27;;;10.90;99.90;;;;;;6694597;88;20695;-80
2022/05/07 03:22:41;;;;;;;16.48;10.93;;;10.80;99.90;;;;;;6688193;88;20785;-79
2022/05/07 03:32:42;;;;;;;21.80;11.43;;;11.00;99.90;;;;;;6692050;88;20222;-79
2022/05/07 03:42:45;;;;;;;16.62;11.75;;;11.10;99.90;;;;;;6691935;88;20197;-79
2022/05/07 04:03:14;;;;;;;15.75;11.18;;;10.80;99.90;;;;;;6691758;88;20175;-79
2022/05/07 04:13:17;;;;;;;16.92;11.35;;;10.90;99.90;;;;;;6691291;88;20298;-80
2022/05/07 04:23:19;;;;;;;16.50;11.90;;;10.40;99.90;;;;;;6609205;89;20772;-79
2022/05/07 04:33:26;;;;;;;17.20;11.57;;;10.40;99.90;;;;;;6705103;88;20179;-79
2022/05/07 04:43:26;;;;;;;18.80;12.32;;;10.70;99.90;;;;;;6708629;88;20685;-80
2022/05/07 04:53:27;;;;;;;16.92;11.85;;;10.70;99.90;;;;;;6710278;88;20189;-80
2022/05/07 05:04:09;;;;;;;19.77;12.35;;;10.60;99.90;;;;;;6720198;77;20214;-79
2022/05/07 05:24:28;;;;;;;16.33;12.18;;;10.90;99.90;;;;;;6735954;88;20206;-77
2022/05/07 05:34:29;;;;;;;18.62;11.80;;;11.20;99.90;;;;;;6735264;88;20310;-77
2022/05/07 05:44:30;;;;;;;16.70;11.68;;;11.60;99.90;;;;;;6735114;88;20195;-76
2022/05/07 05:54:30;;;;;;;16.60;12.07;;;12.20;99.90;;;;;;6737070;88;20196;-76
2022/05/07 06:04:33;;;;;;;19.42;12.63;;;12.70;99.90;;;;;;6737799;88;20635;-77
2022/05/07 06:14:33;;;;;;;18.65;11.88;;;12.90;99.90;;;;;;6736576;88;20220;-77
2022/05/07 06:34:53;;;;;;;16.45;11.25;;;13.60;99.90;;;;;;6735971;88;20207;-76
2022/05/07 06:44:53;;;;;;;18.00;11.68;;;14.10;99.90;;;;;;6748506;88;20719;-77
2022/05/07 06:54:54;;;;;;;18.33;11.40;;;14.80;99.90;;;;;;6695754;88;20274;-76
2022/05/07 07:04:56;;;;;;;17.55;11.12;;;15.40;99.90;;;;;;6744567;88;20204;-75
2022/05/07 07:14:57;;;;;;;15.27;11.00;;;15.80;99.90;;;;;;6753162;88;20210;-76
2022/05/07 07:24:57;;;;;;;15.00;10.50;;;16.50;99.90;;;;;;6749918;88;20187;-77
2022/05/07 07:34:58;;;;;;;14.82;9.75;;;17.20;99.90;;;;;;6729384;88;20193;-77
2022/05/07 07:55:17;;;;;;;14.75;10.57;;;18.50;99.90;;;;;;6753041;88;20219;-74
2022/05/07 08:05:24;;;;;;;17.40;10.38;;;19.20;99.90;;;;;;6743058;87;20218;-74
2022/05/07 08:15:24;;;;;;;14.52;10.02;;;20.00;99.90;;;;;;6736675;88;20201;-75
2022/05/07 08:25:25;;;;;;;15.82;10.13;;;20.90;99.40;;;;;;6737102;87;20916;-75
2022/05/07 08:35:26;;;;;;;19.58;9.68;;;21.80;97.40;;;;;;6731917;88;20611;-75
2022/05/07 08:45:26;;;;;;;17.90;10.25;;;22.70;96.40;;;;;;6736398;88;20542;-75
2022/05/07 08:55:27;;;;;;;15.50;9.40;;;23.10;95.40;;;;;;6741370;88;20185;-76
2022/05/07 09:05:33;;;;;;;16.58;9.95;;;23.80;94.00;;;;;;6712813;87;20509;-76
2022/05/07 09:15:34;;;;;;;23.67;11.12;;;24.50;92.40;;;;;;6756208;88;20332;-77
2022/05/07 09:25:45;;;;;;;23.20;10.73;;;24.90;90.30;;;;;;6751616;87;20245;-76
2022/05/07 09:35:49;;;;;;;21.37;10.70;;;25.90;87.10;;;;;;6744298;88;20673;-75
2022/05/07 09:45:49;;;;;;;25.05;11.55;;;26.70;85.00;;;;;;6742276;87;20196;-76
2022/05/07 10:06:27;;;;;;;12.80;7.47;;;27.40;78.90;;;;;;6752087;87;20246;-76
2022/05/07 10:16:29;;;;;;;16.33;9.05;;;27.20;75.80;;;;;;6744991;88;20209;-76
2022/05/07 10:26:43;;;;;;;17.50;11.03;;;27.60;73.40;;;;;;6737335;88;20206;-78
2022/05/07 10:36:44;;;;;;;18.35;12.02;;;27.80;74.20;;;;;;6733437;88;20406;-77
2022/05/07 10:46:45;;;;;;;18.13;12.37;;;28.10;73.10;;;;;;6733766;88;20205;-76
2022/05/07 10:56:53;;;;;;;22.50;12.77;;;28.40;72.50;;;;;;6751688;88;20334;-76
2022/05/07 11:06:53;;;;;;;19.00;11.63;;;29.70;70.20;;;;;;6754620;88;20230;-78
2022/05/07 11:16:55;;;;;;;18.15;11.93;;;30.10;68.60;;;;;;6755172;87;20547;-77
2022/05/07 11:26:58;;;;;;;15.50;9.70;;;30.30;66.50;;;;;;6754485;88;20180;-76
2022/05/07 11:37:36;;;;;;;16.00;10.60;;;30.00;64.90;;;;;;6744095;88;20210;-76
2022/05/07 11:47:37;;;;;;;12.37;7.60;;;29.50;64.00;;;;;;6737243;88;20199;-77
2022/05/07 11:57:37;;;;;;;15.20;9.20;;;30.00;65.00;;;;;;6750650;87;20216;-75
2022/05/07 12:07:41;;;;;;;10.98;7.97;;;31.50;63.40;;;;;;6750230;87;20214;-76
2022/05/07 12:17:55;;;;;;;10.85;6.82;;;31.00;61.40;;;;;;6756189;88;20241;-77
2022/05/07 12:38:15;;;;;;;10.80;6.95;;;31.30;61.20;;;;;;6741054;88;20578;-76
2022/05/07 12:48:16;;;;;;;11.73;6.73;;;29.70;63.40;;;;;;6759929;88;20214;-76
2022/05/07 12:58:17;;;;;;;10.40;6.62;;;30.70;62.30;;;;;;6759192;88;21042;-76
2022/05/07 13:08:17;;;;;;;9.40;6.15;;;31.30;61.20;;;;;;6762448;88;20297;-76
2022/05/07 13:18:20;;;;;;;12.02;7.53;;;31.20;60.30;;;;;;6756723;88;20277;-76
2022/05/07 13:28:21;;;;;;;9.88;6.47;;;30.70;59.40;;;;;;6753426;87;20206;-74
2022/05/07 13:38:21;;;;;;;10.98;7.03;;;30.60;60.10;;;;;;6752870;88;20196;-77
2022/05/07 13:48:23;;;;;;;11.65;6.37;;;29.80;59.50;;;;;;6756606;88;20338;-78
2022/05/07 13:58:24;;;;;;;9.07;5.77;;;29.00;61.20;;;;;;6761787;88;20655;-78
2022/05/07 14:08:24;;;;;;;8.68;5.57;;;28.20;61.40;;;;;;6755141;88;20216;-78
2022/05/07 14:18:24;;;;;;;10.68;5.30;;;28.20;61.70;;;;;;6750711;87;20238;-77
2022/05/07 14:28:27;;;;;;;9.15;4.95;;;28.20;60.00;;;;;;6750407;88;20319;-76
2022/05/07 14:38:27;;;;;;;9.23;5.17;;;27.70;61.10;;;;;;6746621;88;20184;-76
2022/05/07 14:48:28;;;;;;;12.43;4.70;;;28.00;59.80;;;;;;6747995;87;20216;-76
2022/05/07 14:58:28;;;;;;;8.70;4.68;;;27.60;60.70;;;;;;6747781;88;20703;-79
2022/05/07 15:18:48;;;;;;;12.48;7.05;;;26.10;60.70;;;;;;6750754;87;20676;-79
2022/05/07 15:28:48;;;;;;;16.10;9.20;;;25.40;66.90;;;;;;6752063;88;20321;-77
2022/05/07 15:38:52;;;;;;;11.70;7.53;;;23.80;74.60;;;;;;6749312;88;20191;-77
2022/05/07 15:48:53;;;;;;;10.97;7.33;;;24.00;75.10;;;;;;6744910;87;20311;-77
2022/05/07 15:58:54;;;;;;;12.00;7.55;;;24.10;73.10;;;;;;6751397;88;20700;-77
2022/05/07 16:08:54;;;;;;;11.82;7.18;;;24.00;72.10;;;;;;6746171;88;20185;-76
2022/05/07 16:18:55;;;;;;;11.57;7.53;;;23.90;73.50;;;;;;6749267;88;20192;-77
2022/05/07 16:28:56;;;;;;;8.85;6.20;;;24.20;73.40;;;;;;6741551;88;20361;-78
2022/05/07 16:38:57;;;;;;;9.25;5.00;;;23.90;73.10;;;;;;6738601;87;20194;-77
2022/05/07 16:48:59;;;;;;;9.35;5.20;;;23.70;73.80;;;;;;6747781;88;20257;-78
2022/05/07 16:58:59;;;;;;;11.32;7.50;;;23.70;73.90;;;;;;6743761;88;20180;-78
2022/05/07 17:09:00;;;;;;;13.93;8.32;;;23.50;75.80;;;;;;6742899;77;20239;-80
2022/05/07 17:19:00;;;;;;;14.10;7.68;;;22.50;78.70;;;;;;6744931;88;20617;-79
2022/05/07 17:29:01;;;;;;;10.95;8.02;;;22.10;81.00;;;;;;6727576;88;20260;-78
2022/05/07 17:39:01;;;;;;;10.43;7.22;;;21.70;82.20;;;;;;6724418;88;20188;-77
2022/05/07 17:49:17;;;;;;;9.18;6.50;;;21.40;83.40;;;;;;6722246;88;20220;-79
2022/05/07 17:59:20;;;;;;;8.98;6.30;;;20.90;85.90;;;;;;6724353;88;20193;-77
2022/05/07 18:09:21;;;;;;;10.63;7.12;;;20.60;87.30;;;;;;6726556;88;20200;-78
2022/05/07 18:19:21;;;;;;;11.77;6.40;;;20.30;88.40;;;;;;6733503;88;20251;-81
2022/05/07 18:29:24;;;;;;;9.85;6.30;;;20.00;90.50;;;;;;6737220;88;20201;-78
2022/05/07 18:49:45;;;;;;;10.63;6.50;;;20.00;91.40;;;;;;6738774;88;20702;-79
2022/05/07 18:59:46;;;;;;;9.85;6.85;;;19.80;91.90;;;;;;6730526;88;20294;-80
2022/05/07 19:09:46;;;;;;;9.15;6.30;;;19.70;92.40;;;;;;6729831;88;20245;-81
2022/05/07 19:19:47;;;;;;;9.00;5.50;;;19.40;94.20;;;;;;6731934;88;20186;-81
2022/05/07 19:29:47;;;;;;;13.02;5.85;;;19.20;96.60;;;;;;6732311;88;20354;-81
2022/05/07 19:39:48;;;;;;;13.27;7.00;;;19.20;99.80;;;;;;6736142;88;20214;-81
2022/05/07 19:49:49;;;;;;;15.13;6.43;;;19.50;99.20;;;;;;6747860;88;20182;-84
2022/05/07 19:59:49;;;;;;;10.93;6.80;;;19.30;99.80;;;;;;6750225;88;20215;-83
2022/05/07 20:09:50;;;;;;;11.20;7.17;;;19.20;99.90;;;;;;6737952;88;20240;-82
2022/05/07 20:19:50;;;;;;;10.50;6.68;;;18.90;99.90;;;;;;6730682;88;20302;-82
2022/05/07 20:29:51;;;;;;;8.57;6.13;;;18.70;99.90;;;;;;6732917;88;20202;-82
2022/05/07 20:39:52;;;;;;;9.55;6.60;;;18.40;99.90;;;;;;6732726;88;20616;-82
2022/05/07 20:49:52;;;;;;;9.93;6.10;;;18.20;99.90;;;;;;6717413;88;20222;-82
2022/05/07 20:59:53;;;;;;;11.57;6.80;;;17.80;99.90;;;;;;6718270;88;20247;-80
2022/05/07 21:09:53;;;;;;;8.77;6.80;;;17.50;99.90;;;;;;6718271;88;20246;-80
2022/05/07 21:19:54;;;;;;;12.95;6.93;;;17.10;99.90;;;;;;6729544;88;20201;-80
2022/05/07 21:29:55;;;;;;;12.02;7.15;;;16.90;99.90;;;;;;6735114;88;20177;-81
2022/05/07 21:39:55;;;;;;;10.10;7.20;;;16.60;99.90;;;;;;6737079;88;20208;-79
2022/05/07 21:50:13;;;;;;;9.10;7.05;;;16.30;99.90;;;;;;6736388;88;20178;-80
2022/05/07 22:00:22;;;;;;;13.23;7.90;;;15.90;99.90;;;;;;6724353;88;20186;-80
2022/05/07 22:10:22;;;;;;;11.18;7.85;;;15.80;99.90;;;;;;6735169;88;20821;-79
2022/05/07 22:20:23;;;;;;;14.80;10.05;;;15.60;99.90;;;;;;6737379;88;20344;-82
2022/05/07 22:30:23;;;;;;;13.73;9.95;;;15.40;99.90;;;;;;6733557;88;20217;-80
2022/05/07 22:40:24;;;;;;;14.30;9.70;;;15.20;99.90;;;;;;6733464;88;20229;-80
2022/05/07 22:50:25;;;;;;;13.13;9.98;;;15.00;99.90;;;;;;6732414;88;20304;-79
2022/05/07 23:00:25;;;;;;;15.27;10.30;;;14.80;99.90;;;;;;6731012;88;20259;-79
2022/05/07 23:10:26;;;;;;;17.37;12.00;;;14.90;99.90;;;;;;6734675;77;20185;-77
2022/05/07 23:20:26;;;;;;;15.82;11.25;;;14.60;99.90;;;;;;6729852;88;20266;-76
2022/05/07 23:30:27;;;;;;;16.45;11.60;;;14.60;99.90;;;;;;6726195;88;20236;-78
2022/05/07 23:40:27;;;;;;;15.55;11.07;;;14.50;99.90;;;;;;6737090;88;20759;-78
2022/05/07 23:50:28;;;;;;;16.65;11.18;;;14.40;99.90;;;;;;6729876;88;20313;-77
